Springfield Branson National Airport
KSGF : rendu visible

Aérodrome :











RETROUVEZ-NOUS SUR...

 
LOGIN :

S'inscrire | Disclaimer

   EN    FR    IT 

 









Légende :    VFR   VFR Marginal   IFR   IFR Intensif   IFR Très Intensif
Visi : 
Plafond : 
>= 8 km
>= 3000ft
5 à 8 km
1000 à 3000 ft
1500m à 5 km
500 à 1000 ft
800 à 1500m
200 à 500 ft
< 800m
< 200 ft
Symboles :   Orages  Brouillard  Fortes neiges  Fortes précipitations  Vent > 20 kt






- Altitude de l'aérodrome : 1268 ft
- Code IATA : SGF


KSGF - Springfield Branson National

DERNIER METAR :
  • 100952Z 35005KT 10SM CLR M01/M06 A3017 RMK AO2 SLP219 T10061061

METARs EXPIRÉS :
  • 100852Z 35004KT 10SM CLR 01/M06 A3016 RMK AO2 SLP215 T00061061 50008
  • 100752Z 01008KT 10SM CLR 03/M07 A3017 RMK AO2 SLP218 T00281067

TAF KSGF
Valide du 10 à 06h jusqu'au 11 à 06h UTC


100520Z 1006/1106 36012KT P6SM SKC
FM101200 04006KT P6SM SKC



MET'MAP, la Météo Aéronautique d'un coup d'oeil ! - Copyright ORBIFLY Décembre 2007 - Disclaimer

ORBIFLY MET'MAP TEAM :

Programmation & Développement : Alexandra Zaïnal
Sur une idée originale de : Baudouin d'Aumeries
Assistance à la programmation : Marc-Olivier Méhu
Soutien technique & logistique : Manuel Goepfert

Contact : metmap@orbifly.com




SOURCES & CREDITS :

   NOAA       Earth
Advisory